Rickmansworth, United Kingdom
Current Conditions -  °F | °C
As of 11:50 AM on Sunday 23 Nov 2014 (Local Time) from EGWU Reporting Station
Light Rain Light Rain  
Wind Chill: 42°   Ceiling: 5000
Heat Index: 46°   Visibility: 6mi
Dew Point: 45°   Wind: 8mph
Humidity: 93%   Direction: 350°N
Pressure: 30.03"   Gusts: NA
Location:  51.64°N, 0.47°W
Report Text: EGWU 231150Z 35007KT 9999 -RA SCT007 BKN050 08/07 Q1017 TEMPO FEW007 BKN050
Loading
Personal Weather Stations






























Interactive Weather Map New forecast layout! Learn more

10-Day Weather Forecast

Advertisements
Track Severe Weather on mobile